Southport, California
Current Conditions -  °F | °C
As of 12:53 AM on Friday 24 Oct 2014 (Local Time) from KSAC Reporting Station
Clear Clear  
Wind Chill: 58°   Ceiling: Unl
Heat Index: 58°   Visibility: 10mi
Dew Point: 54°   Wind: 8mph
Humidity: 87%   Direction: 340°NNW
Pressure: 30"   Gusts: NA
Location:  38.5256°N, 121.556°W
Report Text: KSAC 240753Z AUTO 34007KT 10SM CLR 14/12 A3000 RMK AO2 SLP158 T01440122 402560144
Loading
Personal Weather Stations






























Interactive Weather Map
Tropical Storm Tracking
New forecast layout! Learn more

10-Day Weather Forecast

Advertisements
Track Severe Weather on mobile